Adamsville, Rhode Island
Current Conditions -  °F | °C
As of 5:44 PM on Wednesday 22 Oct 2014 (Local Time) from KUUU Reporting Station
Light Rain Light Rain  
Wind Chill: 53°   Ceiling: 1000
Heat Index: 53°   Visibility: 3mi
Dew Point: 49°   Wind: 24mph
Humidity: 86%   Direction: 10°N
Pressure: 29.74"   Gusts: 40mph
Location:  41.55°N, 71.13°W
Report Text: KUUU 222144Z AUTO 01021G35KT 3SM -RA BR OVC010 12/09 A2974 RMK AO2 PK WND 01035/2137 PRESFR P0003 T01170094
Loading
Personal Weather Stations






























Interactive Weather Map New forecast layout! Learn more

10-Day Weather Forecast

Advertisements
Track Severe Weather on mobile